Time,TemperatureF,DewpointF,PressureIn,WindDirection,WindDirectionDegrees,WindSpeedMPH,WindSpeedGustMPH,Humidity,HourlyPrecipIn,Conditions,Clouds,dailyrainin,SoftwareType,DateUTC
2013-10-18 00:15:00,57.7,51.0,30.01,SSE,153,0.0,1.0,78,0.00,,,0.00,weatherlink.com 1.10,2013-10-18 05:15:00,
2013-10-18 00:30:00,57.6,51.0,30.01,SSE,162,2.0,3.0,79,0.00,,,0.00,weatherlink.com 1.10,2013-10-18 05:30:00,
2013-10-18 00:45:00,57.5,51.0,30.01,SSE,160,1.0,1.0,80,0.00,,,0.00,weatherlink.com 1.10,2013-10-18 05:45:00,
2013-10-18 01:00:00,57.3,52.0,30.02,SSW,212,2.0,3.0,81,0.00,,,0.00,weatherlink.com 1.10,2013-10-18 06:00:00,
2013-10-18 01:15:00,57.1,51.0,30.02,SW,226,4.0,4.0,79,0.00,,,0.00,weatherlink.com 1.10,2013-10-18 06:15:00,
2013-10-18 01:30:00,56.7,50.0,30.02,SW,226,3.0,3.0,79,0.00,,,0.00,weatherlink.com 1.10,2013-10-18 06:30:00,
2013-10-18 01:45:00,56.5,50.0,30.02,SSW,211,1.0,4.0,78,0.00,,,0.00,weatherlink.com 1.10,2013-10-18 06:45:00,
2013-10-18 02:00:00,56.3,50.0,30.03,SW,225,1.0,3.0,78,0.00,,,0.00,weatherlink.com 1.10,2013-10-18 07:00:00,
2013-10-18 02:15:00,56.3,50.0,30.04,SSW,204,0.0,2.0,78,0.00,,,0.00,weatherlink.com 1.10,2013-10-18 07:15:00,
2013-10-18 02:30:00,55.9,49.0,30.03,ESE,113,0.0,2.0,78,0.00,,,0.00,weatherlink.com 1.10,2013-10-18 07:30:00,
2013-10-18 02:45:00,56.0,49.0,30.03,WSW,238,0.0,0.0,78,0.00,,,0.00,weatherlink.com 1.10,2013-10-18 07:45:00,
2013-10-18 03:00:00,55.3,49.0,30.04,NW,314,2.0,2.0,80,0.00,,,0.00,weatherlink.com 1.10,2013-10-18 08:00:00,
2013-10-18 03:15:00,55.5,50.0,30.04,NNW,331,0.0,1.0,81,0.00,,,0.00,weatherlink.com 1.10,2013-10-18 08:15:00,
2013-10-18 03:30:00,55.7,50.0,30.04,NNW,331,0.0,0.0,81,0.00,,,0.00,weatherlink.com 1.10,2013-10-18 08:30:00,
2013-10-18 03:45:00,55.9,50.0,30.03,NNW,331,0.0,0.0,80,0.00,,,0.00,weatherlink.com 1.10,2013-10-18 08:45:00,
2013-10-18 04:00:00,56.7,50.0,30.03,East,81,0.0,1.0,79,0.00,,,0.00,weatherlink.com 1.10,2013-10-18 09:00:00,
2013-10-18 04:15:00,56.3,50.0,30.02,East,81,0.0,1.0,80,0.00,,,0.00,weatherlink.com 1.10,2013-10-18 09:15:00,
2013-10-18 04:30:00,56.6,51.0,30.02,ENE,74,0.0,1.0,81,0.00,,,0.00,weatherlink.com 1.10,2013-10-18 09:30:00,
2013-10-18 04:45:00,56.2,51.0,30.02,ENE,64,0.0,1.0,83,0.00,,,0.00,weatherlink.com 1.10,2013-10-18 09:45:00,
2013-10-18 05:00:00,55.9,51.0,30.02,NE,46,0.0,1.0,84,0.00,,,0.00,weatherlink.com 1.10,2013-10-18 10:00:00,
2013-10-18 05:15:00,56.3,51.0,30.02,ENE,73,1.0,1.0,82,0.00,,,0.00,weatherlink.com 1.10,2013-10-18 10:15:00,
2013-10-18 05:30:00,56.0,51.0,30.02,ENE,68,1.0,2.0,83,0.00,,,0.00,weatherlink.com 1.10,2013-10-18 10:30:00,
2013-10-18 05:45:00,55.7,51.0,30.01,ENE,72,0.0,1.0,84,0.00,,,0.00,weatherlink.com 1.10,2013-10-18 10:45:00,
2013-10-18 06:00:00,55.8,51.0,30.01,ENE,72,0.0,1.0,84,0.00,,,0.00,weatherlink.com 1.10,2013-10-18 11:00:00,
2013-10-18 06:15:00,55.5,51.0,30.01,ENE,72,0.0,1.0,85,0.00,,,0.00,weatherlink.com 1.10,2013-10-18 11:15:00,
2013-10-18 06:30:00,55.4,51.0,30.01,East,93,0.0,1.0,85,0.00,,,0.00,weatherlink.com 1.10,2013-10-18 11:30:00,
2013-10-18 06:45:00,55.0,51.0,30.01,East,93,0.0,1.0,85,0.00,,,0.00,weatherlink.com 1.10,2013-10-18 11:45:00,
2013-10-18 07:01:00,54.5,50.0,30.01,East,93,0.0,1.0,86,0.00,,,0.00,weatherlink.com 1.10,2013-10-18 12:01:00,
2013-10-18 07:15:00,54.8,50.0,30.01,ESE,113,0.0,2.0,85,0.00,,,0.00,weatherlink.com 1.10,2013-10-18 12:15:00,
2013-10-18 07:30:00,54.7,50.0,30.01,SE,124,1.0,2.0,85,0.00,,,0.00,weatherlink.com 1.10,2013-10-18 12:30:00,
2013-10-18 07:45:00,55.0,51.0,30.00,ESE,103,1.0,2.0,85,0.00,,,0.00,weatherlink.com 1.10,2013-10-18 12:45:00,
2013-10-18 08:00:00,55.7,51.0,30.01,SSE,149,1.0,7.0,85,0.00,,,0.00,weatherlink.com 1.10,2013-10-18 13:00:00,
2013-10-18 08:15:00,56.3,52.0,30.01,SE,135,4.0,6.0,84,0.00,,,0.00,weatherlink.com 1.10,2013-10-18 13:15:00,
2013-10-18 08:30:00,57.2,52.0,30.02,SE,135,2.0,6.0,84,0.00,,,0.00,weatherlink.com 1.10,2013-10-18 13:30:00,
2013-10-18 08:45:00,57.9,53.0,30.02,ESE,122,4.0,5.0,83,0.00,,,0.00,weatherlink.com 1.10,2013-10-18 13:45:00,
2013-10-18 09:00:00,58.5,53.0,30.03,ESE,122,4.0,6.0,83,0.00,,,0.00,weatherlink.com 1.10,2013-10-18 14:00:00,
2013-10-18 09:15:00,59.5,54.0,30.02,SSE,158,3.0,7.0,81,0.00,,,0.00,weatherlink.com 1.10,2013-10-18 14:15:00,
2013-10-18 09:30:00,60.3,53.0,30.02,SE,143,4.0,7.0,78,0.00,,,0.00,weatherlink.com 1.10,2013-10-18 14:30:00,
2013-10-18 09:45:00,61.4,53.0,30.04,SSE,148,6.0,9.0,73,0.00,,,0.00,weatherlink.com 1.10,2013-10-18 14:45:00,
2013-10-18 10:01:00,62.1,53.0,30.04,ESE,122,7.0,12.0,71,0.00,,,0.00,weatherlink.com 1.10,2013-10-18 15:01:00,
2013-10-18 10:16:00,62.1,53.0,30.03,SE,145,4.0,11.0,71,0.00,,,0.00,weatherlink.com 1.10,2013-10-18 15:16:00,
2013-10-18 10:31:00,63.2,53.0,30.03,SSE,150,4.0,9.0,69,0.00,,,0.00,weatherlink.com 1.10,2013-10-18 15:31:00,
2013-10-18 10:46:00,64.2,53.0,30.02,East,98,5.0,11.0,67,0.00,,,0.00,weatherlink.com 1.10,2013-10-18 15:46:00,
2013-10-18 11:01:00,65.2,53.0,30.02,SE,124,8.0,12.0,65,0.00,,,0.00,weatherlink.com 1.10,2013-10-18 16:01:00,
2013-10-18 11:16:00,64.8,53.0,30.02,SE,142,7.0,12.0,65,0.00,,,0.00,weatherlink.com 1.10,2013-10-18 16:16:00,
2013-10-18 11:31:00,64.2,53.0,30.01,ESE,115,3.0,10.0,67,0.00,,,0.00,weatherlink.com 1.10,2013-10-18 16:31:00,
2013-10-18 11:46:00,64.0,52.0,30.02,SSE,150,5.0,14.0,65,0.00,,,0.00,weatherlink.com 1.10,2013-10-18 16:46:00,
2013-10-18 12:01:00,64.4,52.0,30.02,SSE,149,3.0,9.0,65,0.00,,,0.00,weatherlink.com 1.10,2013-10-18 17:01:00,
2013-10-18 12:16:00,64.3,52.0,30.01,SSE,148,5.0,8.0,65,0.00,,,0.00,weatherlink.com 1.10,2013-10-18 17:16:00,
2013-10-18 12:31:00,64.9,53.0,30.01,ESE,108,4.0,11.0,66,0.00,,,0.00,weatherlink.com 1.10,2013-10-18 17:31:00,
2013-10-18 12:46:00,65.1,53.0,30.00,SE,136,4.0,10.0,66,0.00,,,0.00,weatherlink.com 1.10,2013-10-18 17:46:00,
2013-10-18 13:01:00,65.8,54.0,30.01,ESE,115,2.0,7.0,67,0.00,,,0.00,weatherlink.com 1.10,2013-10-18 18:01:00,
2013-10-18 13:16:00,66.4,54.0,29.99,SE,144,3.0,6.0,65,0.00,,,0.00,weatherlink.com 1.10,2013-10-18 18:16:00,
2013-10-18 13:31:00,66.5,53.0,29.97,SE,132,4.0,8.0,63,0.00,,,0.00,weatherlink.com 1.10,2013-10-18 18:31:00,
2013-10-18 13:46:00,66.1,56.0,29.96,ESE,107,4.0,9.0,70,0.01,,,0.01,weatherlink.com 1.10,2013-10-18 18:46:00,
2013-10-18 14:01:00,67.3,54.0,29.95,SE,124,7.0,10.0,62,0.01,,,0.01,weatherlink.com 1.10,2013-10-18 19:01:00,
2013-10-18 14:16:00,69.0,52.0,29.94,ESE,123,8.0,12.0,56,0.01,,,0.01,weatherlink.com 1.10,2013-10-18 19:16:00,
2013-10-18 14:31:00,68.7,51.0,29.93,SSE,148,4.0,13.0,54,0.01,,,0.01,weatherlink.com 1.10,2013-10-18 19:31:00,
2013-10-18 14:46:00,68.4,49.0,29.93,SSE,150,4.0,13.0,50,0.00,,,0.01,weatherlink.com 1.10,2013-10-18 19:46:00,
2013-10-18 15:01:00,68.6,51.0,29.92,SSE,153,7.0,11.0,54,0.00,,,0.01,weatherlink.com 1.10,2013-10-18 20:01:00,
2013-10-18 15:16:00,68.8,51.0,29.92,SE,143,6.0,14.0,54,0.00,,,0.01,weatherlink.com 1.10,2013-10-18 20:16:00,
2013-10-18 15:31:00,68.4,51.0,29.92,SE,138,3.0,12.0,54,0.00,,,0.01,weatherlink.com 1.10,2013-10-18 20:31:00,
2013-10-18 15:46:00,69.0,52.0,29.92,SSE,155,3.0,9.0,55,0.00,,,0.01,weatherlink.com 1.10,2013-10-18 20:46:00,
2013-10-18 16:16:00,69.6,51.0,29.92,SE,131,6.0,11.0,52,0.00,,,0.01,weatherlink.com 1.10,2013-10-18 21:16:00,
2013-10-18 16:31:00,69.7,50.0,29.92,South,172,7.0,13.0,50,0.00,,,0.01,weatherlink.com 1.10,2013-10-18 21:31:00,
2013-10-18 16:46:00,69.3,51.0,29.92,South,173,8.0,13.0,53,0.00,,,0.01,weatherlink.com 1.10,2013-10-18 21:46:00,
2013-10-18 17:01:00,69.1,52.0,29.93,SSE,165,4.0,8.0,55,0.00,,,0.01,weatherlink.com 1.10,2013-10-18 22:01:00,
2013-10-18 17:16:00,68.8,52.0,29.93,SE,124,4.0,8.0,56,0.00,,,0.01,weatherlink.com 1.10,2013-10-18 22:16:00,
2013-10-18 17:31:00,68.8,50.0,29.94,South,170,5.0,10.0,52,0.00,,,0.01,weatherlink.com 1.10,2013-10-18 22:31:00,
2013-10-18 17:46:00,68.6,51.0,29.94,SW,225,5.0,9.0,54,0.00,,,0.01,weatherlink.com 1.10,2013-10-18 22:46:00,
2013-10-18 18:01:00,68.4,52.0,29.95,SW,216,5.0,7.0,56,0.00,,,0.01,weatherlink.com 1.10,2013-10-18 23:01:00,
2013-10-18 18:16:00,68.2,52.0,29.95,SW,222,4.0,8.0,57,0.00,,,0.01,weatherlink.com 1.10,2013-10-18 23:16:00,
2013-10-18 18:33:00,68.0,53.0,29.95,SSW,200,1.0,4.0,59,0.00,,,0.01,weatherlink.com 1.10,2013-10-18 23:33:00,
2013-10-18 18:47:00,67.8,53.0,29.95,SSW,207,2.0,5.0,59,0.00,,,0.01,weatherlink.com 1.10,2013-10-18 23:47:00,
2013-10-18 19:02:00,67.5,53.0,29.95,SSE,162,2.0,4.0,60,0.00,,,0.01,weatherlink.com 1.10,2013-10-19 00:02:00,
2013-10-18 19:17:00,66.9,53.0,29.95,South,169,2.0,5.0,61,0.00,,,0.01,weatherlink.com 1.10,2013-10-19 00:17:00,
2013-10-18 19:32:00,66.2,53.0,29.95,South,188,0.0,1.0,63,0.00,,,0.01,weatherlink.com 1.10,2013-10-19 00:32:00,
2013-10-18 19:47:00,65.7,53.0,29.96,SSE,167,0.0,2.0,64,0.00,,,0.01,weatherlink.com 1.10,2013-10-19 00:47:00,
2013-10-18 20:02:00,66.0,54.0,29.98,WSW,252,1.0,2.0,65,0.00,,,0.01,weatherlink.com 1.10,2013-10-19 01:02:00,
2013-10-18 20:17:00,66.4,54.0,29.98,WSW,241,1.0,2.0,64,0.00,,,0.01,weatherlink.com 1.10,2013-10-19 01:17:00,
2013-10-18 20:32:00,66.2,54.0,30.00,NNW,331,5.0,5.0,64,0.00,,,0.01,weatherlink.com 1.10,2013-10-19 01:32:00,
2013-10-18 20:47:00,66.2,54.0,30.01,NW,323,3.0,5.0,65,0.00,,,0.01,weatherlink.com 1.10,2013-10-19 01:47:00,
2013-10-18 21:02:00,66.0,54.0,30.02,North,9,3.0,7.0,65,0.00,,,0.01,weatherlink.com 1.10,2013-10-19 02:02:00,
2013-10-18 21:17:00,65.3,55.0,30.02,North,349,5.0,9.0,70,0.00,,,0.01,weatherlink.com 1.10,2013-10-19 02:17:00,
2013-10-18 21:32:00,64.8,55.0,30.03,NNW,343,9.0,12.0,71,0.00,,,0.01,weatherlink.com 1.10,2013-10-19 02:32:00,
2013-10-18 21:47:00,64.2,55.0,30.05,NW,312,7.0,14.0,73,0.00,,,0.01,weatherlink.com 1.10,2013-10-19 02:47:00,
2013-10-18 22:02:00,62.6,56.0,30.07,NNW,340,11.0,19.0,79,0.00,,,0.01,weatherlink.com 1.10,2013-10-19 03:02:00,
2013-10-18 22:17:00,59.3,55.0,30.08,NNW,333,5.0,13.0,86,0.00,,,0.01,weatherlink.com 1.10,2013-10-19 03:17:00,
2013-10-18 22:32:00,59.0,55.0,30.08,NNE,27,6.0,13.0,86,0.00,,,0.01,weatherlink.com 1.10,2013-10-19 03:32:00,
2013-10-18 22:47:00,56.0,52.0,30.10,NNW,340,5.0,18.0,86,0.00,,,0.01,weatherlink.com 1.10,2013-10-19 03:47:00,
2013-10-18 23:02:00,53.5,50.0,30.10,NW,323,9.0,20.0,87,0.00,,,0.01,weatherlink.com 1.10,2013-10-19 04:02:00,
2013-10-18 23:17:00,53.1,49.0,30.12,NW,314,10.0,17.0,86,0.00,,,0.01,weatherlink.com 1.10,2013-10-19 04:17:00,
2013-10-18 23:32:00,52.6,49.0,30.12,NNW,328,7.0,17.0,86,0.00,,,0.01,weatherlink.com 1.10,2013-10-19 04:32:00,
2013-10-18 23:47:00,51.8,48.0,30.13,NNE,27,3.0,14.0,86,0.00,,,0.01,weatherlink.com 1.10,2013-10-19 04:47:00,